Time;durP1;ratioP1;P1;durP2;ratioP2;P2;SDS_P1;SDS_P2;PMS_P1;PMS_P2;Temp;Humidity;BMP_temperature;BMP_pressure;BME280_temperature;BME280_humidity;BME280_pressure;Samples;Min_cycle;Max_cycle;Signal;HPM_P1;HPM_P2
2024/01/27 00:01:33;;;;;;;28.75;6.15;;;3.60;99.90;;;;;;5081874;28;20053;-73
2024/01/27 00:03:59;;;;;;;9.85;2.40;;;3.70;99.90;;;;;;5059175;28;20044;-73
2024/01/27 00:06:25;;;;;;;19.60;3.58;;;3.70;99.90;;;;;;5065131;28;20054;-74
2024/01/27 00:08:50;;;;;;;16.98;2.40;;;3.70;99.90;;;;;;5085380;28;20071;-73
2024/01/27 00:11:16;;;;;;;17.23;2.50;;;3.70;99.90;;;;;;5058917;28;20040;-73
2024/01/27 00:13:42;;;;;;;15.88;2.72;;;3.70;99.90;;;;;;5054907;28;20045;-73
2024/01/27 00:16:08;;;;;;;12.85;3.25;;;3.70;99.90;;;;;;5082881;28;20047;-73
2024/01/27 00:18:36;;;;;;;11.48;2.78;;;3.70;99.90;;;;;;5078850;28;20142;-73
2024/01/27 00:21:02;;;;;;;17.52;3.00;;;3.60;99.90;;;;;;5059777;28;20033;-73
2024/01/27 00:23:37;;;;;;;14.32;3.17;;;3.60;99.90;;;;;;5080598;28;20600;-73
2024/01/27 00:26:04;;;;;;;18.42;3.65;;;3.60;99.90;;;;;;5054161;28;20045;-73
2024/01/27 00:28:29;;;;;;;12.80;3.03;;;3.50;99.90;;;;;;5060167;28;20052;-73
2024/01/27 00:30:55;;;;;;;13.40;2.70;;;3.50;99.90;;;;;;5056970;28;20051;-73
2024/01/27 00:33:22;;;;;;;15.65;3.70;;;3.50;99.90;;;;;;5085952;28;20386;-73
2024/01/27 00:35:47;;;;;;;13.35;2.35;;;3.50;99.90;;;;;;5072435;28;20028;-73
2024/01/27 00:38:13;;;;;;;15.75;2.83;;;3.50;99.90;;;;;;5064552;28;20067;-73
2024/01/27 00:40:39;;;;;;;15.38;3.67;;;3.50;99.90;;;;;;5080806;28;20387;-73
2024/01/27 00:43:05;;;;;;;12.93;2.90;;;3.50;99.90;;;;;;5078843;28;20051;-73
2024/01/27 00:45:31;;;;;;;25.85;6.22;;;3.50;99.90;;;;;;5071399;28;20055;-73
2024/01/27 00:47:57;;;;;;;17.83;2.90;;;3.50;99.90;;;;;;5063370;28;20068;-73
2024/01/27 00:50:23;;;;;;;31.15;6.68;;;3.60;99.90;;;;;;5052390;28;20495;-73
2024/01/27 00:52:49;;;;;;;13.98;2.30;;;3.60;99.90;;;;;;5071106;28;20169;-73
2024/01/27 00:55:15;;;;;;;16.40;2.75;;;3.60;99.90;;;;;;5063412;28;20703;-73
2024/01/27 00:57:40;;;;;;;14.38;2.78;;;3.50;99.90;;;;;;5081436;28;20047;-73
2024/01/27 01:00:08;;;;;;;11.98;2.60;;;3.50;99.90;;;;;;5075951;28;20047;-74
2024/01/27 01:02:34;;;;;;;27.10;3.40;;;3.60;99.90;;;;;;5087330;28;20059;-73
2024/01/27 01:05:00;;;;;;;10.80;2.13;;;3.50;99.90;;;;;;5081655;28;20480;-74
2024/01/27 01:07:26;;;;;;;15.77;2.85;;;3.60;99.90;;;;;;5078251;28;20040;-73
2024/01/27 01:09:51;;;;;;;11.85;2.70;;;3.60;99.90;;;;;;5063837;28;20037;-73
2024/01/27 01:12:17;;;;;;;17.92;3.60;;;3.60;99.90;;;;;;5080214;28;20039;-73
2024/01/27 01:14:43;;;;;;;15.30;3.08;;;3.60;99.90;;;;;;5077223;28;20373;-74
2024/01/27 01:17:09;;;;;;;10.68;2.42;;;3.60;99.90;;;;;;5079033;28;20078;-74
2024/01/27 01:19:37;;;;;;;23.45;3.47;;;3.60;99.90;;;;;;5080595;28;20842;-73
2024/01/27 01:22:03;;;;;;;24.13;5.80;;;3.60;99.90;;;;;;5086341;28;20044;-73
2024/01/27 01:24:30;;;;;;;19.40;3.20;;;3.60;99.90;;;;;;5059423;28;20047;-73
2024/01/27 01:26:55;;;;;;;17.38;3.50;;;3.60;99.90;;;;;;5058512;28;20051;-73
2024/01/27 01:29:22;;;;;;;16.35;2.70;;;3.60;99.90;;;;;;5068532;28;20391;-73
2024/01/27 01:31:47;;;;;;;16.67;3.20;;;3.50;99.90;;;;;;5081956;28;20040;-73
2024/01/27 01:34:13;;;;;;;14.75;2.85;;;3.50;99.90;;;;;;5063474;28;20507;-74
2024/01/27 01:36:39;;;;;;;16.35;3.42;;;3.50;99.90;;;;;;5084521;28;20040;-73
2024/01/27 01:39:05;;;;;;;14.93;2.60;;;3.50;99.90;;;;;;5057855;28;20128;-73
2024/01/27 01:41:30;;;;;;;13.32;3.03;;;3.50;99.90;;;;;;5078149;28;20040;-73
2024/01/27 01:43:56;;;;;;;17.73;2.75;;;3.50;99.90;;;;;;5058145;28;20040;-73
2024/01/27 01:46:23;;;;;;;13.23;2.85;;;3.50;99.90;;;;;;5062455;28;20122;-73
2024/01/27 01:48:49;;;;;;;;;;;3.50;99.90;;;;;;5079222;28;20116;-73
2024/01/27 01:51:16;;;;;;;16.42;3.28;;;3.50;99.90;;;;;;5082124;28;20049;-74
2024/01/27 01:53:43;;;;;;;25.27;6.25;;;3.50;99.90;;;;;;5076845;28;20055;-71
2024/01/27 01:56:08;;;;;;;22.15;3.22;;;3.50;99.90;;;;;;5079205;28;20036;-71
2024/01/27 01:58:34;;;;;;;16.45;3.67;;;3.50;99.90;;;;;;5054116;28;20127;-71
2024/01/27 02:01:01;;;;;;;15.90;2.75;;;3.50;99.90;;;;;;5058673;28;20051;-71
2024/01/27 02:03:27;;;;;;;17.38;2.85;;;3.50;99.90;;;;;;5073050;28;20047;-74
2024/01/27 02:05:52;;;;;;;19.23;3.67;;;3.50;99.90;;;;;;5084696;28;20040;-73
2024/01/27 02:08:18;;;;;;;23.27;3.50;;;3.50;99.90;;;;;;5071778;28;20036;-73
2024/01/27 02:10:43;;;;;;;15.35;2.80;;;3.40;99.90;;;;;;5088870;28;20044;-73
2024/01/27 02:13:20;;;;;;;16.23;3.55;;;3.40;99.90;;;;;;5083940;28;20043;-74
2024/01/27 02:15:46;;;;;;;11.50;2.88;;;3.40;99.90;;;;;;5087098;28;20528;-73
2024/01/27 02:18:12;;;;;;;13.13;2.85;;;3.40;99.90;;;;;;5081146;28;20045;-74
2024/01/27 02:20:38;;;;;;;17.40;3.00;;;3.40;99.90;;;;;;5076784;28;20047;-71
2024/01/27 02:23:07;;;;;;;11.18;2.65;;;3.40;99.90;;;;;;5085264;28;20032;-71
2024/01/27 02:25:34;;;;;;;11.63;2.63;;;3.40;99.90;;;;;;5088507;28;20514;-71
2024/01/27 02:28:00;;;;;;;9.63;2.37;;;3.40;99.90;;;;;;5075640;28;20036;-73
2024/01/27 02:30:25;;;;;;;15.50;2.70;;;3.40;99.90;;;;;;5081638;28;20127;-74
2024/01/27 02:32:52;;;;;;;22.40;5.93;;;3.40;99.90;;;;;;5067011;28;20123;-73
2024/01/27 02:35:17;;;;;;;12.80;3.40;;;3.40;99.90;;;;;;5083747;28;20084;-73
2024/01/27 02:37:43;;;;;;;15.55;2.60;;;3.40;99.90;;;;;;5082148;28;21023;-73
2024/01/27 02:40:09;;;;;;;11.43;2.67;;;3.30;99.90;;;;;;5084472;28;20051;-73
2024/01/27 02:42:37;;;;;;;17.58;3.28;;;3.30;99.90;;;;;;5081890;28;20051;-73
2024/01/27 02:45:03;;;;;;;21.65;3.80;;;3.30;99.90;;;;;;5062661;28;20059;-73
2024/01/27 02:47:29;;;;;;;12.05;2.97;;;3.30;99.90;;;;;;5056077;28;20050;-71
2024/01/27 02:49:54;;;;;;;13.40;2.65;;;3.40;99.90;;;;;;5067539;28;20043;-74
2024/01/27 02:52:20;;;;;;;18.88;2.88;;;3.30;99.90;;;;;;5062257;28;20053;-73
2024/01/27 02:54:46;;;;;;;11.30;2.58;;;3.30;99.90;;;;;;5059700;28;20396;-73
2024/01/27 02:57:12;;;;;;;19.92;3.53;;;3.30;99.90;;;;;;5068430;28;20117;-73
2024/01/27 02:59:38;;;;;;;10.80;2.88;;;3.30;99.90;;;;;;5067997;28;20044;-73
2024/01/27 03:02:08;;;;;;;24.73;3.25;;;3.40;99.90;;;;;;5064906;28;20056;-72
2024/01/27 03:04:33;;;;;;;13.90;3.03;;;3.40;99.90;;;;;;5059172;28;20051;-72
2024/01/27 03:06:59;;;;;;;15.43;2.95;;;3.40;99.90;;;;;;5085427;28;20048;-72
2024/01/27 03:09:25;;;;;;;14.00;3.03;;;3.40;99.90;;;;;;5082790;28;20046;-72
2024/01/27 03:11:50;;;;;;;11.05;2.50;;;3.40;99.90;;;;;;5082933;28;20079;-73
2024/01/27 03:14:16;;;;;;;12.85;2.95;;;3.40;99.90;;;;;;5070262;28;20049;-72
2024/01/27 03:16:44;;;;;;;18.33;2.83;;;3.40;99.90;;;;;;5046995;28;20048;-72
2024/01/27 03:19:10;;;;;;;15.35;2.70;;;3.40;99.90;;;;;;5063381;28;20067;-72
2024/01/27 03:21:36;;;;;;;15.77;2.90;;;3.40;99.90;;;;;;5090426;28;20498;-72
2024/01/27 03:24:01;;;;;;;19.45;4.13;;;3.40;99.90;;;;;;5082040;28;20078;-72
2024/01/27 03:26:27;;;;;;;12.52;2.67;;;3.40;99.90;;;;;;5083107;28;20055;-72
2024/01/27 03:28:53;;;;;;;12.35;2.58;;;3.40;99.90;;;;;;5059644;28;20063;-72
2024/01/27 03:31:18;;;;;;;11.63;3.20;;;3.40;99.90;;;;;;5078972;28;20480;-72
2024/01/27 03:33:44;;;;;;;12.18;3.55;;;3.40;99.90;;;;;;5080750;28;20071;-72
2024/01/27 03:36:11;;;;;;;22.15;3.63;;;3.40;99.90;;;;;;5064673;28;20033;-72
2024/01/27 03:38:37;;;;;;;15.48;3.25;;;3.40;99.90;;;;;;5081148;28;20044;-72
2024/01/27 03:41:04;;;;;;;14.30;2.83;;;3.40;99.90;;;;;;5076791;28;20391;-72
2024/01/27 03:43:30;;;;;;;13.95;2.63;;;3.30;99.90;;;;;;5080058;28;20044;-72
2024/01/27 03:45:57;;;;;;;13.30;2.38;;;3.30;99.90;;;;;;5058159;28;20049;-72
2024/01/27 03:48:22;;;;;;;10.93;2.00;;;3.30;99.90;;;;;;5077113;28;20104;-72
2024/01/27 03:50:48;;;;;;;15.35;3.53;;;3.30;99.90;;;;;;5074384;28;20036;-72
2024/01/27 03:53:14;;;;;;;17.08;3.15;;;3.30;99.90;;;;;;5056557;28;20710;-72
2024/01/27 03:55:39;;;;;;;13.70;3.00;;;3.30;99.90;;;;;;5084392;28;20048;-72
2024/01/27 03:58:05;;;;;;;12.07;2.10;;;3.30;99.90;;;;;;5062750;28;20055;-72
2024/01/27 04:00:32;;;;;;;16.45;2.58;;;3.30;99.90;;;;;;5078562;28;20122;-72
2024/01/27 04:02:59;;;;;;;18.40;2.78;;;3.30;99.90;;;;;;5080750;28;20040;-72
2024/01/27 04:05:25;;;;;;;22.13;5.80;;;3.30;99.90;;;;;;5082177;28;20112;-72
2024/01/27 04:07:51;;;;;;;10.25;2.28;;;3.30;99.90;;;;;;5081444;28;20140;-72
2024/01/27 04:10:18;;;;;;;10.63;2.50;;;3.30;99.90;;;;;;5083433;28;20063;-72
2024/01/27 04:12:43;;;;;;;9.37;2.57;;;3.30;99.90;;;;;;5085095;28;20044;-72
2024/01/27 04:15:10;;;;;;;21.13;3.00;;;3.30;99.90;;;;;;5065729;28;20294;-72
2024/01/27 04:17:37;;;;;;;11.63;2.50;;;3.30;99.90;;;;;;5075080;28;20404;-72
2024/01/27 04:20:03;;;;;;;16.00;3.58;;;3.30;99.90;;;;;;5075367;28;20040;-72
2024/01/27 04:22:28;;;;;;;9.25;2.58;;;3.30;99.90;;;;;;5057087;28;20428;-72
2024/01/27 04:24:54;;;;;;;15.73;2.58;;;3.30;99.90;;;;;;5084176;28;20032;-72
2024/01/27 04:27:20;;;;;;;10.35;2.50;;;3.30;99.90;;;;;;5070107;28;20483;-72
2024/01/27 04:29:45;;;;;;;10.52;2.45;;;3.30;99.90;;;;;;5055379;28;20047;-72
2024/01/27 04:32:12;;;;;;;13.27;2.67;;;3.30;99.90;;;;;;5072805;28;20051;-72
2024/01/27 04:34:38;;;;;;;9.85;2.30;;;3.30;99.90;;;;;;5066837;28;20048;-72
2024/01/27 04:37:04;;;;;;;10.30;2.63;;;3.20;99.90;;;;;;5077154;28;20041;-72
2024/01/27 04:39:30;;;;;;;9.68;2.33;;;3.30;99.90;;;;;;5072188;28;20036;-72
2024/01/27 04:41:55;;;;;;;8.35;2.45;;;3.30;99.90;;;;;;5081917;28;20048;-72
2024/01/27 04:44:21;;;;;;;10.18;2.95;;;3.20;99.90;;;;;;5078054;28;20040;-73
2024/01/27 04:46:48;;;;;;;10.75;2.55;;;3.20;99.90;;;;;;5066484;28;20123;-72
2024/01/27 04:49:14;;;;;;;10.65;2.83;;;3.20;99.90;;;;;;5066312;28;20429;-72
2024/01/27 04:51:40;;;;;;;14.73;2.65;;;3.20;99.90;;;;;;5081335;28;20036;-72
2024/01/27 04:54:06;;;;;;;9.75;2.50;;;3.20;99.90;;;;;;5079025;28;20039;-72
2024/01/27 04:56:31;;;;;;;13.80;2.95;;;3.10;99.90;;;;;;5079418;28;20100;-72
2024/01/27 04:58:57;;;;;;;15.98;2.80;;;3.10;99.90;;;;;;5078193;28;20075;-72
2024/01/27 05:01:23;;;;;;;10.75;3.15;;;3.10;99.90;;;;;;5069888;28;20063;-72
2024/01/27 05:03:48;;;;;;;11.40;3.22;;;3.10;99.90;;;;;;5066081;28;20542;-73
2024/01/27 05:06:14;;;;;;;19.17;2.85;;;3.10;99.90;;;;;;5065333;28;20399;-72
2024/01/27 05:08:40;;;;;;;12.57;2.75;;;3.10;99.90;;;;;;5058906;28;20051;-72
2024/01/27 05:11:06;;;;;;;16.95;3.13;;;3.10;99.90;;;;;;5063783;28;20411;-72
2024/01/27 05:13:32;;;;;;;11.52;2.83;;;3.10;99.90;;;;;;5086992;28;20484;-72
2024/01/27 05:15:58;;;;;;;13.25;3.15;;;3.00;99.90;;;;;;5078520;28;20174;-73
2024/01/27 05:18:23;;;;;;;12.82;2.70;;;3.00;99.90;;;;;;5074794;28;20037;-72
2024/01/27 05:20:49;;;;;;;16.00;3.33;;;3.00;99.90;;;;;;5079302;28;20170;-72
2024/01/27 05:23:14;;;;;;;17.67;3.22;;;3.00;99.90;;;;;;5076023;28;20086;-72
2024/01/27 05:25:40;;;;;;;12.73;3.72;;;3.00;99.90;;;;;;5052899;28;20519;-72
2024/01/27 05:28:06;;;;;;;11.50;2.80;;;3.00;99.90;;;;;;5080898;28;20475;-72
2024/01/27 05:30:31;;;;;;;10.45;2.75;;;3.00;99.90;;;;;;5085741;28;20076;-72
2024/01/27 05:32:57;;;;;;;15.77;3.08;;;3.00;99.90;;;;;;5083557;28;20399;-72
2024/01/27 05:35:23;;;;;;;13.38;2.70;;;3.00;99.90;;;;;;5082750;28;20063;-72
2024/01/27 05:37:49;;;;;;;18.08;3.45;;;2.80;99.90;;;;;;5077596;28;20041;-72
2024/01/27 05:40:14;;;;;;;9.80;3.28;;;2.80;99.90;;;;;;5084130;28;20044;-72
2024/01/27 05:42:42;;;;;;;21.73;4.32;;;2.80;99.90;;;;;;5083270;28;20051;-72
2024/01/27 05:45:10;;;;;;;11.63;3.17;;;2.80;99.90;;;;;;5071258;28;20837;-72
2024/01/27 05:47:35;;;;;;;11.35;3.40;;;2.70;99.90;;;;;;5084674;28;20622;-72
2024/01/27 05:50:01;;;;;;;16.52;4.10;;;2.70;99.90;;;;;;5085234;28;20123;-72
2024/01/27 05:52:27;;;;;;;16.08;4.40;;;2.70;99.90;;;;;;5086353;28;20119;-72
2024/01/27 05:54:53;;;;;;;17.25;4.13;;;2.70;99.90;;;;;;5061947;28;20044;-72
2024/01/27 05:57:19;;;;;;;23.70;4.10;;;2.70;99.90;;;;;;5062040;28;20135;-72
2024/01/27 05:59:45;;;;;;;19.42;4.10;;;2.70;99.90;;;;;;5061743;28;20539;-72
2024/01/27 06:02:10;;;;;;;15.52;4.05;;;2.60;99.90;;;;;;5078651;28;20063;-72
2024/01/27 06:04:36;;;;;;;20.45;4.57;;;2.60;99.90;;;;;;5061823;28;20403;-72
2024/01/27 06:07:02;;;;;;;20.67;4.32;;;2.50;99.90;;;;;;5084908;28;20039;-73
2024/01/27 06:09:28;;;;;;;13.50;4.45;;;2.50;99.90;;;;;;5064645;28;20825;-72
2024/01/27 06:11:53;;;;;;;19.67;5.60;;;2.50;99.90;;;;;;5079212;28;20052;-72
2024/01/27 06:14:19;;;;;;;16.30;4.90;;;2.50;99.90;;;;;;5060048;28;20047;-72
2024/01/27 06:16:44;;;;;;;16.10;5.32;;;2.50;99.90;;;;;;5085689;28;20083;-72
2024/01/27 06:19:10;;;;;;;14.18;4.93;;;2.60;99.90;;;;;;5057997;28;20051;-73
2024/01/27 06:21:36;;;;;;;17.35;5.05;;;2.60;99.90;;;;;;5063743;28;20051;-72
2024/01/27 06:24:02;;;;;;;17.77;5.65;;;2.60;99.90;;;;;;5082841;28;20028;-72
2024/01/27 06:26:27;;;;;;;12.95;5.03;;;2.60;99.90;;;;;;5078897;28;20043;-72
2024/01/27 06:28:53;;;;;;;17.08;5.82;;;2.60;99.90;;;;;;5082501;28;20052;-72
2024/01/27 06:31:18;;;;;;;14.23;5.43;;;2.70;99.90;;;;;;5078783;28;20051;-73
2024/01/27 06:33:44;;;;;;;11.77;5.18;;;2.70;99.90;;;;;;5082280;28;20395;-72
2024/01/27 06:36:10;;;;;;;13.68;5.18;;;2.70;99.90;;;;;;5061686;28;20071;-72
2024/01/27 06:38:37;;;;;;;14.73;5.05;;;2.70;99.90;;;;;;5067288;28;20054;-72
2024/01/27 06:41:03;;;;;;;18.20;5.63;;;2.70;99.90;;;;;;5067586;28;20126;-73
2024/01/27 06:43:29;;;;;;;18.00;6.25;;;2.70;99.90;;;;;;5079222;28;20054;-73
2024/01/27 06:45:57;;;;;;;16.00;6.32;;;2.70;99.90;;;;;;5060576;28;20073;-72
2024/01/27 06:48:25;;;;;;;16.33;6.18;;;2.70;99.90;;;;;;5077884;28;20490;-72
2024/01/27 06:50:51;;;;;;;18.08;6.03;;;2.70;99.90;;;;;;5066835;28;20479;-73
2024/01/27 06:53:18;;;;;;;16.08;6.45;;;2.60;99.90;;;;;;5067427;28;20492;-73
2024/01/27 06:55:44;;;;;;;21.45;7.35;;;2.70;99.90;;;;;;5062873;28;20130;-71
2024/01/27 06:58:10;;;;;;;10.95;5.78;;;2.60;99.90;;;;;;5061702;28;20143;-72
2024/01/27 07:00:35;;;;;;;11.70;5.65;;;2.70;99.90;;;;;;5082961;28;20048;-72
2024/01/27 07:03:02;;;;;;;21.77;10.23;;;2.60;99.90;;;;;;5076668;28;20044;-72
2024/01/27 07:05:28;;;;;;;15.30;5.53;;;2.70;99.90;;;;;;5065946;28;20050;-72
2024/01/27 07:07:54;;;;;;;14.48;6.10;;;2.70;99.90;;;;;;5069096;28;20039;-72
2024/01/27 07:10:20;;;;;;;14.85;5.70;;;2.60;99.90;;;;;;5085843;28;20467;-72
2024/01/27 07:12:45;;;;;;;17.98;6.55;;;2.60;99.90;;;;;;5061916;28;20098;-72
2024/01/27 07:15:11;;;;;;;13.13;5.60;;;2.60;99.90;;;;;;5062257;28;20475;-73
2024/01/27 07:17:37;;;;;;;13.65;5.60;;;2.60;99.90;;;;;;5058783;28;20123;-72
2024/01/27 07:20:03;;;;;;;19.90;6.28;;;2.60;99.90;;;;;;5087849;28;20071;-73
2024/01/27 07:22:28;;;;;;;20.85;7.07;;;2.60;99.90;;;;;;5062174;28;20044;-72
2024/01/27 07:24:55;;;;;;;15.35;5.85;;;2.50;99.90;;;;;;5067148;28;20048;-72
2024/01/27 07:27:22;;;;;;;22.73;6.68;;;2.60;99.90;;;;;;5059489;28;20059;-73
2024/01/27 07:29:48;;;;;;;15.00;6.40;;;2.50;99.90;;;;;;5078076;28;20040;-73
2024/01/27 07:32:13;;;;;;;12.77;6.50;;;2.60;99.90;;;;;;5073268;28;20395;-73
2024/01/27 07:34:45;;;;;;;17.83;6.72;;;2.50;99.90;;;;;;5083923;28;20044;-72
2024/01/27 07:37:11;;;;;;;17.80;6.55;;;2.60;99.90;;;;;;5070005;28;20135;-73
2024/01/27 07:39:37;;;;;;;17.95;7.03;;;2.50;99.90;;;;;;5067357;28;20036;-73
2024/01/27 07:42:03;;;;;;;18.45;7.28;;;2.50;99.90;;;;;;5064397;28;20174;-73
2024/01/27 07:44:29;;;;;;;14.23;6.72;;;2.50;99.90;;;;;;5063858;28;20064;-73
2024/01/27 07:46:55;;;;;;;18.35;6.43;;;2.50;99.90;;;;;;5067133;28;20588;-73
2024/01/27 07:49:21;;;;;;;15.55;6.07;;;2.50;99.90;;;;;;5064008;28;20068;-73
2024/01/27 07:51:47;;;;;;;23.10;7.35;;;2.60;99.90;;;;;;5066061;28;20152;-72
2024/01/27 07:54:12;;;;;;;16.42;6.25;;;2.60;99.90;;;;;;5061924;28;20387;-72
2024/01/27 07:56:38;;;;;;;19.63;5.93;;;2.60;99.90;;;;;;5068308;28;20059;-72
2024/01/27 07:59:04;;;;;;;16.25;6.07;;;2.60;99.90;;;;;;5067306;28;20040;-73
2024/01/27 08:01:30;;;;;;;21.92;6.82;;;2.60;99.90;;;;;;5067844;28;20056;-73
2024/01/27 08:03:56;;;;;;;18.70;6.47;;;2.60;99.90;;;;;;5059541;28;20045;-72
2024/01/27 08:06:31;;;;;;;14.30;6.10;;;2.60;99.90;;;;;;5061697;28;20075;-73
2024/01/27 08:08:57;;;;;;;19.45;7.82;;;2.60;99.90;;;;;;5084980;28;21689;-72
2024/01/27 08:11:26;;;;;;;17.50;6.07;;;2.60;99.90;;;;;;5064586;28;20044;-73
2024/01/27 08:13:52;;;;;;;16.13;6.55;;;2.60;99.90;;;;;;5068593;28;20043;-73
2024/01/27 08:16:18;;;;;;;18.98;7.50;;;2.60;99.90;;;;;;5069614;28;20036;-72
2024/01/27 08:18:44;;;;;;;14.40;6.10;;;2.70;99.90;;;;;;5066836;28;20586;-73
2024/01/27 08:21:11;;;;;;;16.05;7.22;;;2.70;99.90;;;;;;5064901;28;20043;-73
2024/01/27 08:23:37;;;;;;;;;;;2.70;99.90;;;;;;5082972;28;21588;-72
2024/01/27 08:26:03;;;;;;;17.45;6.82;;;2.70;99.90;;;;;;5080746;28;20488;-73
2024/01/27 08:28:28;;;;;;;16.63;6.75;;;2.70;99.90;;;;;;5060264;28;20483;-72
2024/01/27 08:30:54;;;;;;;19.52;7.07;;;2.70;99.90;;;;;;5064526;28;20043;-72
2024/01/27 08:33:20;;;;;;;17.58;6.90;;;2.70;99.90;;;;;;5060930;28;20036;-74
2024/01/27 08:35:47;;;;;;;15.48;6.97;;;2.80;99.90;;;;;;5062177;28;20075;-73
2024/01/27 08:38:13;;;;;;;13.75;6.88;;;2.80;99.90;;;;;;5074491;28;20048;-72
2024/01/27 08:40:39;;;;;;;26.65;12.73;;;2.90;99.90;;;;;;5059646;28;20412;-78
2024/01/27 08:43:05;;;;;;;14.32;7.18;;;2.90;99.90;;;;;;5059829;28;20056;-78
2024/01/27 08:45:31;;;;;;;17.15;7.63;;;3.10;99.90;;;;;;5082387;28;20498;-78
2024/01/27 08:47:58;;;;;;;17.02;8.45;;;3.00;99.90;;;;;;5068191;28;20040;-78
2024/01/27 08:50:24;;;;;;;18.55;7.22;;;3.00;99.90;;;;;;5071441;28;20055;-76
2024/01/27 08:52:49;;;;;;;19.27;7.80;;;3.10;99.90;;;;;;5085922;28;20044;-76
2024/01/27 08:55:18;;;;;;;15.85;6.97;;;3.10;99.90;;;;;;5071687;28;20048;-77
2024/01/27 08:57:45;;;;;;;20.13;8.40;;;3.10;99.90;;;;;;5088363;28;20542;-75
2024/01/27 09:00:13;;;;;;;22.73;7.97;;;3.20;99.90;;;;;;5077816;28;20497;-76
2024/01/27 09:02:38;;;;;;;21.45;9.50;;;3.20;99.90;;;;;;5064567;28;20053;-75
2024/01/27 09:05:05;;;;;;;26.67;9.35;;;3.30;99.90;;;;;;5085944;28;20565;-77
2024/01/27 09:07:31;;;;;;;25.17;14.57;;;3.30;99.90;;;;;;5080236;28;20394;-77
2024/01/27 09:09:57;;;;;;;19.08;8.73;;;3.40;99.90;;;;;;5055658;28;20036;-76
2024/01/27 09:12:22;;;;;;;19.20;8.48;;;3.40;99.90;;;;;;5077290;28;20037;-75
2024/01/27 09:14:48;;;;;;;19.55;8.63;;;3.40;99.90;;;;;;5076132;28;20644;-76
2024/01/27 09:17:14;;;;;;;21.95;9.55;;;3.50;99.90;;;;;;5075944;28;20048;-76
2024/01/27 09:19:39;;;;;;;20.83;9.40;;;3.50;99.90;;;;;;5078702;28;20064;-75
2024/01/27 09:22:05;;;;;;;19.33;8.45;;;3.60;99.90;;;;;;5089455;28;20055;-75
2024/01/27 09:24:31;;;;;;;23.88;10.38;;;3.60;99.90;;;;;;5074569;28;20404;-77
2024/01/27 09:26:56;;;;;;;22.95;8.63;;;3.70;99.90;;;;;;5087681;28;20036;-72
2024/01/27 09:29:22;;;;;;;20.45;8.85;;;3.70;99.90;;;;;;5060373;28;20935;-75
2024/01/27 09:31:47;;;;;;;24.52;9.13;;;3.80;99.90;;;;;;5081386;28;20028;-76
2024/01/27 09:34:14;;;;;;;22.63;9.48;;;3.90;99.90;;;;;;5077849;28;20044;-76
2024/01/27 09:36:39;;;;;;;17.20;8.68;;;3.90;99.90;;;;;;5092243;28;20036;-75
2024/01/27 09:39:05;;;;;;;16.40;8.93;;;3.90;99.90;;;;;;5055634;28;20052;-74
2024/01/27 09:41:32;;;;;;;18.10;8.88;;;4.00;99.90;;;;;;5083401;28;20556;-75
2024/01/27 09:44:02;;;;;;;25.92;9.43;;;4.00;99.90;;;;;;5065501;28;20217;-74
2024/01/27 09:46:28;;;;;;;18.92;9.10;;;4.10;99.90;;;;;;5088751;28;20032;-75
2024/01/27 09:48:54;;;;;;;16.17;9.65;;;4.10;99.90;;;;;;5064509;28;20075;-76
2024/01/27 09:51:20;;;;;;;20.83;8.98;;;4.20;99.90;;;;;;5067996;28;20072;-74
2024/01/27 09:53:46;;;;;;;21.48;9.57;;;4.20;99.90;;;;;;5075960;28;20036;-74
2024/01/27 09:56:17;;;;;;;24.17;9.60;;;4.30;99.90;;;;;;5068954;28;20455;-75
2024/01/27 09:58:44;;;;;;;26.25;8.73;;;4.30;99.90;;;;;;5082210;28;20048;-75
2024/01/27 10:01:10;;;;;;;28.23;16.80;;;4.40;99.90;;;;;;5092311;28;20457;-74
2024/01/27 10:03:37;;;;;;;26.02;9.75;;;4.40;99.90;;;;;;5086405;28;20374;-73
2024/01/27 10:06:04;;;;;;;20.98;9.60;;;4.50;99.90;;;;;;5080316;28;20063;-73
2024/01/27 10:08:29;;;;;;;22.58;9.43;;;4.50;99.90;;;;;;5078478;28;20052;-74
2024/01/27 10:10:56;;;;;;;20.45;9.38;;;4.60;99.90;;;;;;5080815;28;20040;-72
2024/01/27 10:13:28;;;;;;;22.93;10.27;;;4.60;99.90;;;;;;5070254;28;20663;-71
2024/01/27 10:16:08;;;;;;;24.05;10.68;;;4.70;99.90;;;;;;5070361;28;20403;-71
2024/01/27 10:18:34;;;;;;;23.17;9.88;;;4.70;99.90;;;;;;5069891;28;20044;-71
2024/01/27 10:21:00;;;;;;;26.83;10.85;;;4.80;99.90;;;;;;5069485;28;20128;-72
2024/01/27 10:23:26;;;;;;;18.67;9.10;;;4.80;99.90;;;;;;5083434;28;20039;-71
2024/01/27 10:25:52;;;;;;;20.58;9.30;;;4.80;99.90;;;;;;5069678;28;20051;-76
2024/01/27 10:28:18;;;;;;;30.20;15.10;;;4.80;99.90;;;;;;5084361;28;20512;-77
2024/01/27 10:30:45;;;;;;;21.13;9.13;;;5.00;99.90;;;;;;5083274;28;20040;-78
2024/01/27 10:33:14;;;;;;;24.60;9.68;;;5.10;99.90;;;;;;5060920;28;20040;-77
2024/01/27 10:35:41;;;;;;;21.58;9.00;;;5.10;99.90;;;;;;5087259;28;20047;-77
2024/01/27 10:38:07;;;;;;;17.10;8.43;;;5.10;99.90;;;;;;5054377;28;20532;-76
2024/01/27 10:40:33;;;;;;;26.63;14.80;;;5.20;99.90;;;;;;5053260;28;20079;-76
2024/01/27 10:43:04;;;;;;;17.73;8.18;;;5.30;99.90;;;;;;5076239;28;20040;-75
2024/01/27 10:45:40;;;;;;;20.05;9.50;;;5.40;99.90;;;;;;5082047;28;20040;-75
2024/01/27 10:48:10;;;;;;;14.82;9.15;;;5.40;99.90;;;;;;5064452;28;20537;-75
2024/01/27 10:50:38;;;;;;;25.88;9.98;;;5.50;99.90;;;;;;5068624;28;20059;-77
2024/01/27 10:53:08;;;;;;;22.15;9.70;;;5.50;99.90;;;;;;5078632;28;20044;-78
2024/01/27 10:55:37;;;;;;;25.35;14.90;;;5.60;99.90;;;;;;5052040;28;20048;-77
2024/01/27 10:58:03;;;;;;;24.15;9.43;;;5.70;99.90;;;;;;5052643;28;20552;-76
2024/01/27 11:00:33;;;;;;;25.50;13.77;;;5.70;99.90;;;;;;5082052;28;20147;-73
2024/01/27 11:03:01;;;;;;;21.65;10.15;;;5.80;99.90;;;;;;5058548;28;20691;-72
2024/01/27 11:05:31;;;;;;;20.15;8.88;;;5.90;99.90;;;;;;5078041;28;20044;-74
2024/01/27 11:07:59;;;;;;;25.33;8.18;;;5.90;99.90;;;;;;5076226;28;20044;-77
2024/01/27 11:10:26;;;;;;;28.77;14.85;;;6.00;99.90;;;;;;5088866;28;20036;-78
2024/01/27 11:12:54;;;;;;;24.40;13.82;;;6.10;99.90;;;;;;5088807;28;20032;-78
2024/01/27 11:15:21;;;;;;;20.05;8.80;;;6.20;99.90;;;;;;5085166;28;20372;-79
2024/01/27 11:17:46;;;;;;;24.95;8.35;;;6.20;99.90;;;;;;5056607;28;20486;-81
2024/01/27 11:20:14;;;;;;;115.15;84.22;;;6.40;99.90;;;;;;5075810;28;20043;-79
2024/01/27 11:22:42;;;;;;;49.80;30.08;;;6.40;99.90;;;;;;5074693;28;20040;-77
2024/01/27 11:25:11;;;;;;;45.42;26.98;;;6.50;99.90;;;;;;5083076;28;20089;-76
2024/01/27 11:27:37;;;;;;;50.75;27.45;;;6.60;99.90;;;;;;5082458;28;20083;-73
2024/01/27 11:30:04;;;;;;;21.67;8.57;;;6.70;99.90;;;;;;5055076;28;20044;-75
2024/01/27 11:32:30;;;;;;;30.13;14.95;;;6.80;99.90;;;;;;5083935;28;20048;-74
2024/01/27 11:34:56;;;;;;;29.67;16.20;;;6.80;99.90;;;;;;5089211;28;20161;-78
2024/01/27 11:37:24;;;;;;;38.75;21.73;;;6.90;99.90;;;;;;5072390;28;20123;-78
2024/01/27 11:39:51;;;;;;;28.67;16.48;;;7.00;99.90;;;;;;5053993;28;20093;-78
2024/01/27 11:42:17;;;;;;;23.23;13.02;;;7.00;99.90;;;;;;5079563;28;20403;-79
2024/01/27 11:44:44;;;;;;;34.75;13.70;;;7.20;99.90;;;;;;5060586;28;20040;-77
2024/01/27 11:47:16;;;;;;;30.52;15.88;;;7.10;99.90;;;;;;5062336;28;20041;-77
2024/01/27 11:49:43;;;;;;;39.90;23.45;;;7.20;99.90;;;;;;5068644;28;20048;-75
2024/01/27 11:52:08;;;;;;;25.48;12.63;;;7.30;99.90;;;;;;5080500;28;20036;-75
2024/01/27 11:54:35;;;;;;;16.88;6.28;;;7.40;99.90;;;;;;5064791;28;20074;-77
2024/01/27 11:57:01;;;;;;;19.30;9.60;;;7.40;99.90;;;;;;5063618;28;20047;-76
2024/01/27 11:59:27;;;;;;;26.80;14.43;;;7.40;99.90;;;;;;5063716;28;20048;-75
2024/01/27 12:01:53;;;;;;;21.70;10.05;;;7.50;99.90;;;;;;5079592;28;20575;-75
2024/01/27 12:04:19;;;;;;;27.55;10.98;;;7.50;99.90;;;;;;5062536;28;20496;-75
2024/01/27 12:06:45;;;;;;;22.63;9.05;;;7.60;99.90;;;;;;5053866;28;20044;-76
2024/01/27 12:09:12;;;;;;;29.30;11.40;;;7.60;99.90;;;;;;5072852;28;20059;-75
2024/01/27 12:11:41;;;;;;;19.65;9.07;;;7.60;99.90;;;;;;5067895;28;20047;-76
2024/01/27 12:14:06;;;;;;;22.63;9.07;;;7.70;99.90;;;;;;5084663;28;20047;-76
2024/01/27 12:16:32;;;;;;;23.25;10.23;;;7.80;99.90;;;;;;5070086;28;20439;-76
2024/01/27 12:18:58;;;;;;;22.08;9.55;;;7.80;99.90;;;;;;5056261;28;20048;-76
2024/01/27 12:21:23;;;;;;;24.42;9.35;;;7.90;99.90;;;;;;5055129;28;20058;-76
2024/01/27 12:23:51;;;;;;;22.00;10.23;;;7.90;99.90;;;;;;5062759;28;20746;-74
2024/01/27 12:26:17;;;;;;;22.13;8.90;;;7.90;99.90;;;;;;5064920;28;20040;-77
2024/01/27 12:28:46;;;;;;;18.30;8.13;;;8.00;99.90;;;;;;5087967;28;20369;-75
2024/01/27 12:31:12;;;;;;;16.30;5.47;;;8.20;99.90;;;;;;5061589;28;20041;-74
2024/01/27 12:33:37;;;;;;;20.92;7.53;;;8.10;99.90;;;;;;5059363;28;20043;-74
2024/01/27 12:36:07;;;;;;;21.67;8.50;;;8.10;99.90;;;;;;5063312;28;20040;-73
2024/01/27 12:38:33;;;;;;;16.02;5.95;;;8.10;99.90;;;;;;5066834;28;20040;-74
2024/01/27 12:40:58;;;;;;;21.48;8.13;;;8.10;99.90;;;;;;5065254;28;20040;-71